168  
SXUS55 KMSO 231623  
OSOMSO  
MONTANA AWOS SUMMARY  
NATIONAL WEATHER SERVICE MISSOULA MT  
923 AM MST THU MAR 23 2017  
 
MONTANA AWOS REPORTS  
 
LAUREL |K6S8 231615Z AUTO 32005KT 7SM 09/01 A2982 RMK AO1 T00890006  
 
CLICK HERE TO GO TO PREVIOUS BULLETINS.

The Nexlab MT Page
The Nexlab ID Page Main Text Page